Venice, Italy

9:48 PM CEST on July 29, 2016 (GMT +0200)
Venezia | | Change Station

Elev 14 ft 45.53 °N, 12.31 °E | Updated 43 seconds ago

Clear
Clear
75.4 °F
Feels Like 77 °F
N
0.0
Wind Variable Wind from SW
Gusts 0.0 mph

Today
High -- | Low -- °F
--% Chance of Precip.
Yesterday
High -- | Low -- °F
Precip. -- in
Pressure 29.92 in
Visibility -9999.0 miles
Clouds
Heat Index 77 °F
Dew Point 67 °F
Humidity 76%
Rainfall --
Snow Depth Not available.
5:51 AM 8:42 PM
Waning Crescent, 19% visible
METAR LIPZ 291920Z 15005KT 120V180 CAVOK 26/20 Q1013 NOSIG
Pressure 29.92 in
Visibility -9999.0 miles
Clouds
Heat Index 77 °F
Dew Point 67 °F
Humidity 76%
Rainfall --
Snow Depth Not available.
5:51 AM 8:42 PM
Waning Crescent, 19% visible
METAR LIPZ 291920Z 15005KT 120V180 CAVOK 26/20 Q1013 NOSIG

10-Day Weather Forecast

×

Almanac

Astronomy

Jul. 29, 2016 Rise Set
Actual Time
Civil Twilight
Nautical Twilight
Astronomical Twilight
Moon
Length of Visible Light
Length of Day
Tomorrow will be .
, % of the Moon is Illuminated

Today's Extremes

Country Highs Country Lows

Community

WunderPhotos

Upload Photos

1,928,401 photos uploaded!

WunderBlog® & News

Nearby

Air Quality

  Air Quality AQ Index Pollutant
Not available.

Snow Depth

Station Depth Elevation

Earthquake Activity

City Distance Mag. Time & Date
Minimum magnitude displayed is 2.5.

Coastal Water Temperatures

Place Temperature

Stations

Nearby Weather Stations

Station Location Temp. Windchill Dew Point Humidity Wind Precip. Elev Updated Type